< Typhoon 195701 1957 Season Typhoon 195703 >
Typhoon 195702 (ROSE)
General InformationTrack Information on Google Maps || Disaster Info.ResourceGoogle EarthGE AnimationAtom FeedGeoJSON
Detalied Best Track (Time Zone = UTC)
Year Month Day Hour Lat. Long. Pressure (hPa) Wind (kt) Class Image Chart
1957 1 21 06 3.2 151.9 1008 0 2 -- Chart
1957 1 21 12 3.3 150.4 1004 0 2 -- Chart
1957 1 21 18 3.8 149.2 1002 0 2 -- Chart
1957 1 22 00 4.1 148.0 1000 0 9 -- Chart
1957 1 22 06 4.6 147.0 988 0 9 -- Chart
1957 1 22 12 5.1 145.9 998 0 9 -- Chart
1957 1 22 18 5.6 144.6 995 0 9 -- Chart
1957 1 23 00 6.6 142.6 985 0 9 -- Chart
1957 1 23 06 7.4 141.2 980 0 9 -- Chart
1957 1 23 12 8.2 139.8 980 0 9 -- Chart
1957 1 23 18 9.2 138.3 970 0 9 -- Chart
1957 1 24 00 10.0 136.5 960 0 9 -- Chart
1957 1 24 06 10.9 135.7 952 0 9 -- Chart
1957 1 24 12 11.7 135.1 955 0 9 -- Chart
1957 1 24 18 12.7 134.3 960 0 9 -- Chart
1957 1 25 00 13.7 133.4 965 0 9 -- Chart
1957 1 25 06 14.5 133.1 970 0 9 -- Chart
1957 1 25 12 15.2 132.7 980 0 9 -- Chart
1957 1 25 18 15.5 132.1 995 0 9 -- Chart
1957 1 26 00 16.2 131.2 1000 0 9 -- Chart
1957 1 26 06 16.9 130.5 1002 0 9 -- Chart
1957 1 26 12 18.0 130.1 1002 0 9 -- Chart
1957 1 26 18 19.0 130.8 1004 0 9 -- Chart
1957 1 27 00 19.6 131.6 1004 0 9 -- Chart
1957 1 27 06 20.3 132.8 1008 0 2 -- Chart
1957 1 27 12 20.4 133.9 1008 0 2 -- Chart
1957 1 27 18 20.5 134.8 1008 0 2 -- Chart
1957 1 28 00 20.7 135.6 1008 0 2 -- Chart
1957 1 28 06 21.0 136.5 1008 0 2 -- Chart
1957 1 28 12 21.3 137.2 1008 0 2 -- Chart
1957 1 28 18 21.0 137.6 1008 0 2 -- Chart
1957 1 29 00 22.0 137.6 1008 0 2 -- Chart
1957 1 29 06 22.3 136.6 1008 0 2 -- Chart
1957 1 29 12 23.0 136.5 1008 0 2 -- Chart
1957 1 29 18 24.5 136.5 1008 0 2 -- Chart
1957 1 30 00 26.5 137.0 1009 0 2 -- Chart
1957 1 30 06 29.8 138.4 1002 0 2 -- Chart
1957 1 30 12 30.0 138.5 1004 0 2 -- Chart
Japan Meteorological Agency Best Track Data | Correction Date : 1989-06-01
< Typhoon 195701 1957 Season Typhoon 195703 >

Help